createdAt,value
2019-03-24T00:00:02.578Z,91.30
2019-03-24T00:02:31.342Z,91.40
2019-03-24T00:04:59.910Z,91.40
2019-03-24T00:07:28.515Z,91.40
2019-03-24T00:09:57.323Z,91.50
2019-03-24T00:12:25.974Z,91.50
2019-03-24T00:14:54.585Z,91.20
2019-03-24T00:17:23.380Z,91.20
2019-03-24T00:19:52.005Z,91.20
2019-03-24T00:22:20.784Z,91.20
2019-03-24T00:24:49.438Z,91.30
2019-03-24T00:27:18.090Z,91.10
2019-03-24T00:29:46.679Z,91.20
2019-03-24T00:32:15.497Z,91.10
2019-03-24T00:34:44.076Z,91.30
2019-03-24T00:37:12.677Z,91.20
2019-03-24T00:39:41.245Z,91.10
2019-03-24T00:42:09.883Z,91.20
2019-03-24T00:44:38.518Z,91.20
2019-03-24T00:47:07.199Z,91.10
2019-03-24T00:49:35.868Z,91.00
2019-03-24T00:52:04.746Z,90.90
2019-03-24T00:54:33.371Z,91.20
2019-03-24T00:57:02.101Z,91.10
2019-03-24T00:59:30.829Z,91.20
2019-03-24T01:01:59.498Z,91.10
2019-03-24T01:04:28.073Z,91.00
2019-03-24T01:06:56.840Z,91.00
2019-03-24T01:09:25.446Z,91.10
2019-03-24T01:11:54.088Z,90.90
2019-03-24T01:14:22.718Z,90.60
2019-03-24T01:16:51.413Z,90.40
2019-03-24T01:19:20.169Z,90.30
2019-03-24T01:21:48.864Z,90.50
2019-03-24T01:24:17.449Z,90.10
2019-03-24T01:26:46.127Z,89.70
2019-03-24T01:29:14.849Z,90.10
2019-03-24T01:31:43.485Z,89.30
2019-03-24T01:34:12.133Z,89.50
2019-03-24T01:36:40.800Z,89.20
2019-03-24T01:39:09.482Z,88.90
2019-03-24T01:41:38.107Z,89.20
2019-03-24T01:44:06.932Z,88.30
2019-03-24T01:46:35.643Z,89.00
2019-03-24T01:49:04.383Z,88.60
2019-03-24T01:51:32.987Z,88.00
2019-03-24T01:54:01.613Z,87.20
2019-03-24T01:56:30.240Z,88.10
2019-03-24T01:58:59.072Z,87.90
2019-03-24T02:01:27.629Z,87.30
2019-03-24T02:03:56.290Z,87.60
2019-03-24T02:06:25.030Z,87.80
2019-03-24T02:08:53.597Z,87.30
2019-03-24T02:11:22.300Z,87.40
2019-03-24T02:13:51.130Z,87.30
2019-03-24T02:16:19.877Z,87.50
2019-03-24T02:18:48.440Z,88.10
2019-03-24T02:21:17.034Z,87.40
2019-03-24T02:23:45.691Z,87.70
2019-03-24T02:26:14.282Z,87.40
2019-03-24T02:28:42.899Z,87.30
2019-03-24T02:31:11.632Z,87.80
2019-03-24T02:33:40.202Z,87.30
2019-03-24T02:36:08.795Z,87.10
2019-03-24T02:38:37.547Z,88.00
2019-03-24T02:41:06.116Z,87.30
2019-03-24T02:43:34.693Z,87.20
2019-03-24T02:46:03.491Z,87.20
2019-03-24T02:48:32.072Z,87.80
2019-03-24T02:51:00.770Z,87.60
2019-03-24T02:53:29.369Z,87.70
2019-03-24T02:55:58.144Z,87.70
2019-03-24T02:58:27.116Z,87.70
2019-03-24T03:00:55.713Z,88.20
2019-03-24T03:03:24.385Z,87.90
2019-03-24T03:05:53.073Z,88.50
2019-03-24T03:08:21.669Z,88.50
2019-03-24T03:10:50.228Z,87.90
2019-03-24T03:13:18.810Z,88.00
2019-03-24T03:15:47.369Z,88.00
2019-03-24T03:18:16.042Z,88.20
2019-03-24T03:20:44.689Z,88.30
2019-03-24T03:23:13.242Z,88.90
2019-03-24T03:25:41.848Z,88.70
2019-03-24T03:28:10.439Z,88.50
2019-03-24T03:30:39.053Z,88.40
2019-03-24T03:33:07.712Z,88.80
2019-03-24T03:35:39.258Z,88.70
2019-03-24T03:38:07.830Z,89.00
2019-03-24T03:40:36.743Z,89.10
2019-03-24T03:43:05.437Z,89.60
2019-03-24T03:45:34.141Z,89.60
2019-03-24T03:48:02.714Z,90.00
2019-03-24T03:50:31.375Z,89.90
2019-03-24T03:52:59.996Z,90.00
2019-03-24T03:55:28.599Z,90.20
2019-03-24T03:57:57.317Z,90.30
2019-03-24T04:00:34.265Z,90.30
2019-03-24T04:03:03.391Z,90.60
2019-03-24T04:05:32.052Z,90.60
2019-03-24T04:08:01.441Z,90.70
2019-03-24T04:10:30.109Z,90.80
2019-03-24T04:12:58.897Z,90.60
2019-03-24T04:15:27.488Z,90.90
2019-03-24T04:17:56.186Z,90.90
2019-03-24T04:20:24.770Z,91.10
2019-03-24T04:22:53.357Z,91.00
2019-03-24T04:25:21.974Z,91.10
2019-03-24T04:27:50.579Z,91.10
2019-03-24T04:30:19.215Z,91.30
2019-03-24T04:32:47.785Z,91.40
2019-03-24T04:35:16.356Z,91.20
2019-03-24T04:37:44.985Z,91.40
2019-03-24T04:40:13.719Z,91.40
2019-03-24T04:42:42.309Z,91.80
2019-03-24T04:45:11.226Z,91.40
2019-03-24T04:47:39.857Z,91.40
2019-03-24T04:50:09.196Z,91.50
2019-03-24T04:52:37.911Z,91.60
2019-03-24T04:55:09.576Z,91.50
2019-03-24T04:57:38.443Z,91.70
2019-03-24T05:00:08.209Z,91.70
2019-03-24T05:02:37.002Z,91.60
2019-03-24T05:05:07.124Z,91.50
2019-03-24T05:07:36.058Z,91.50
2019-03-24T05:10:06.570Z,91.60
2019-03-24T05:12:35.285Z,91.60
2019-03-24T05:15:04.329Z,91.60
2019-03-24T05:17:32.989Z,91.50
2019-03-24T05:20:01.585Z,91.50
2019-03-24T05:22:30.178Z,91.40
2019-03-24T05:24:58.825Z,91.40
2019-03-24T05:27:27.436Z,91.30
2019-03-24T05:29:56.107Z,91.30
2019-03-24T05:32:24.762Z,91.30
2019-03-24T05:34:53.442Z,91.20
2019-03-24T05:37:22.136Z,91.00
2019-03-24T05:39:50.726Z,90.80
2019-03-24T05:42:19.313Z,90.80
2019-03-24T05:44:47.930Z,90.50
2019-03-24T05:47:16.494Z,90.50
2019-03-24T05:49:45.097Z,90.10
2019-03-24T05:52:13.771Z,90.10
2019-03-24T05:54:42.477Z,89.70
2019-03-24T05:57:11.084Z,89.60
2019-03-24T05:59:39.813Z,88.80
2019-03-24T06:02:08.452Z,89.10
2019-03-24T06:04:37.079Z,87.90
2019-03-24T06:07:05.838Z,87.70
2019-03-24T06:09:34.405Z,87.70
2019-03-24T06:12:03.096Z,86.80
2019-03-24T06:14:31.674Z,87.00
2019-03-24T06:17:00.289Z,86.60
2019-03-24T06:19:28.897Z,86.40
2019-03-24T06:21:57.484Z,86.20
2019-03-24T06:24:26.185Z,86.50
2019-03-24T06:26:54.887Z,86.40
2019-03-24T06:29:23.499Z,86.10
2019-03-24T06:31:52.178Z,86.10
2019-03-24T06:34:20.843Z,85.30
2019-03-24T06:36:49.472Z,85.70
2019-03-24T06:39:18.170Z,84.90
2019-03-24T06:41:46.818Z,83.60
2019-03-24T06:44:15.494Z,84.50
2019-03-24T06:46:44.292Z,84.20
2019-03-24T06:49:12.978Z,82.80
2019-03-24T06:51:41.565Z,83.60
2019-03-24T06:54:10.214Z,83.80
2019-03-24T06:56:38.818Z,81.80
2019-03-24T06:59:07.523Z,83.30
2019-03-24T07:01:36.246Z,83.10
2019-03-24T07:04:04.990Z,80.10
2019-03-24T07:06:34.761Z,81.90
2019-03-24T07:09:05.336Z,81.50
2019-03-24T07:11:33.996Z,81.40
2019-03-24T07:14:02.704Z,80.40
2019-03-24T07:16:31.281Z,80.30
2019-03-24T07:18:59.934Z,79.60
2019-03-24T07:21:28.556Z,79.60
2019-03-24T07:23:57.152Z,79.00
2019-03-24T07:26:25.723Z,78.90
2019-03-24T07:28:54.352Z,78.70
2019-03-24T07:31:23.134Z,76.30
2019-03-24T07:33:51.752Z,74.10
2019-03-24T07:36:20.426Z,73.00
2019-03-24T07:38:49.036Z,71.90
2019-03-24T07:41:17.643Z,70.00
2019-03-24T07:43:49.290Z,68.70
2019-03-24T07:46:18.260Z,68.00
2019-03-24T07:48:46.874Z,69.60
2019-03-24T07:51:15.553Z,66.60
2019-03-24T07:53:44.148Z,67.20
2019-03-24T07:56:12.747Z,66.10
2019-03-24T07:58:41.443Z,65.40
2019-03-24T08:01:10.150Z,63.30
2019-03-24T08:03:38.919Z,64.80
2019-03-24T08:06:07.685Z,64.20
2019-03-24T08:08:43.963Z,63.40
2019-03-24T08:11:06.734Z,61.10
2019-03-24T08:13:35.353Z,64.20
2019-03-24T08:16:04.014Z,61.00
2019-03-24T08:18:32.579Z,63.30
2019-03-24T08:21:01.153Z,62.10
2019-03-24T08:23:29.774Z,61.20
2019-03-24T08:25:58.425Z,61.90
2019-03-24T08:28:26.973Z,60.30
2019-03-24T08:30:55.611Z,57.20
2019-03-24T08:33:24.160Z,57.90
2019-03-24T08:35:52.896Z,57.80
2019-03-24T08:38:21.596Z,57.00
2019-03-24T08:40:50.219Z,57.50
2019-03-24T08:43:19.047Z,58.80
2019-03-24T08:45:47.715Z,59.40
2019-03-24T08:48:16.347Z,58.60
2019-03-24T08:50:45.057Z,58.00
2019-03-24T08:53:13.647Z,56.30
2019-03-24T08:55:42.239Z,55.90
2019-03-24T08:58:10.893Z,55.70
2019-03-24T09:00:39.646Z,55.10
2019-03-24T09:03:08.295Z,55.90
2019-03-24T09:05:37.046Z,55.90
2019-03-24T09:08:05.872Z,53.70
2019-03-24T09:10:34.471Z,52.30
2019-03-24T09:13:03.065Z,55.40
2019-03-24T09:15:31.686Z,54.20
2019-03-24T09:18:00.256Z,55.60
2019-03-24T09:20:28.974Z,55.50
2019-03-24T09:22:57.533Z,55.40
2019-03-24T09:25:27.133Z,54.50
2019-03-24T09:27:55.891Z,54.10
2019-03-24T09:30:29.085Z,54.20
2019-03-24T09:32:57.814Z,52.90
2019-03-24T09:35:26.518Z,52.40
2019-03-24T09:37:55.173Z,51.20
2019-03-24T09:40:29.115Z,52.80
2019-03-24T09:42:59.612Z,53.10
2019-03-24T09:45:29.352Z,53.60
2019-03-24T09:47:58.018Z,53.30
2019-03-24T09:50:26.768Z,52.90
2019-03-24T09:52:55.390Z,52.10
2019-03-24T09:55:23.955Z,53.70
2019-03-24T09:57:52.584Z,54.30
2019-03-24T10:00:21.282Z,53.60
2019-03-24T10:02:49.845Z,53.00
2019-03-24T10:05:18.504Z,51.70
2019-03-24T10:07:47.331Z,51.50
2019-03-24T10:10:16.178Z,52.40
2019-03-24T10:12:44.802Z,51.10
2019-03-24T10:15:13.700Z,52.10
2019-03-24T10:17:42.584Z,52.50
2019-03-24T10:20:11.544Z,53.10
2019-03-24T10:22:40.267Z,53.50
2019-03-24T10:25:09.099Z,52.90
2019-03-24T10:27:37.719Z,51.60
2019-03-24T10:30:08.174Z,52.70
2019-03-24T10:32:36.806Z,49.30
2019-03-24T10:35:06.944Z,50.70
2019-03-24T10:37:35.554Z,50.60
2019-03-24T10:40:05.458Z,51.30
2019-03-24T10:42:34.067Z,50.50
2019-03-24T10:45:02.892Z,52.30
2019-03-24T10:47:31.474Z,51.90
2019-03-24T10:50:00.301Z,50.90
2019-03-24T10:52:29.326Z,49.50
2019-03-24T10:54:57.930Z,49.20
2019-03-24T10:57:26.519Z,49.50
2019-03-24T10:59:55.134Z,49.90
2019-03-24T11:02:23.877Z,49.50
2019-03-24T11:04:52.501Z,48.10
2019-03-24T11:07:21.080Z,47.60
2019-03-24T11:09:49.743Z,48.40
2019-03-24T11:12:18.362Z,49.00
2019-03-24T11:14:46.945Z,49.00
2019-03-24T11:17:15.592Z,48.20
2019-03-24T11:19:44.296Z,47.20
2019-03-24T11:22:12.925Z,46.70
2019-03-24T11:24:41.497Z,48.00
2019-03-24T11:27:10.231Z,46.50
2019-03-24T11:29:38.962Z,45.20
2019-03-24T11:32:07.582Z,46.40
2019-03-24T11:34:36.247Z,46.50
2019-03-24T11:37:04.945Z,46.60
2019-03-24T11:39:33.517Z,47.30
2019-03-24T11:42:02.175Z,46.60
2019-03-24T11:44:30.913Z,47.50
2019-03-24T11:46:59.499Z,47.80
2019-03-24T11:49:28.129Z,47.40
2019-03-24T11:51:56.717Z,46.60
2019-03-24T11:54:25.357Z,46.40
2019-03-24T11:56:53.953Z,46.60
2019-03-24T11:59:22.621Z,46.20
2019-03-24T12:01:51.304Z,45.70
2019-03-24T12:04:19.919Z,45.30
2019-03-24T12:06:48.467Z,44.90
2019-03-24T12:09:17.089Z,44.60
2019-03-24T12:11:45.683Z,43.80
2019-03-24T12:14:14.324Z,45.50
2019-03-24T12:16:42.958Z,45.20
2019-03-24T12:19:11.555Z,44.30
2019-03-24T12:21:40.118Z,44.70
2019-03-24T12:24:08.766Z,46.20
2019-03-24T12:26:37.305Z,46.90
2019-03-24T12:29:05.911Z,46.60
2019-03-24T12:31:34.639Z,46.50
2019-03-24T12:34:03.319Z,46.40
2019-03-24T12:36:31.902Z,46.40
2019-03-24T12:39:00.470Z,46.70
2019-03-24T12:41:29.068Z,48.70
2019-03-24T12:43:57.752Z,50.40
2019-03-24T12:46:26.414Z,51.90
2019-03-24T12:48:55.003Z,53.20
2019-03-24T12:51:23.696Z,53.50
2019-03-24T12:53:52.285Z,54.20
2019-03-24T12:56:20.955Z,54.70
2019-03-24T12:58:49.599Z,55.10
2019-03-24T13:01:18.288Z,55.60
2019-03-24T13:03:46.925Z,55.70
2019-03-24T13:06:15.458Z,55.30
2019-03-24T13:08:44.087Z,54.70
2019-03-24T13:11:12.684Z,54.90
2019-03-24T13:13:41.272Z,55.30
2019-03-24T13:16:09.930Z,55.10
2019-03-24T13:18:38.421Z,54.70
2019-03-24T13:21:06.999Z,54.00
2019-03-24T13:23:35.603Z,53.90
2019-03-24T13:26:04.342Z,52.80
2019-03-24T13:28:32.905Z,52.40
2019-03-24T13:31:01.524Z,52.60
2019-03-24T13:33:30.088Z,52.90
2019-03-24T13:36:03.367Z,52.20
2019-03-24T13:38:32.317Z,51.30
2019-03-24T13:41:00.954Z,51.60
2019-03-24T13:43:29.630Z,52.50
2019-03-24T13:45:58.311Z,51.70
2019-03-24T13:48:26.931Z,52.00
2019-03-24T13:50:55.650Z,51.90
2019-03-24T13:53:24.208Z,51.40
2019-03-24T13:55:52.847Z,50.60
2019-03-24T13:58:21.471Z,50.80
2019-03-24T14:00:51.610Z,50.00
2019-03-24T14:03:20.199Z,51.20
2019-03-24T14:05:48.895Z,50.50
2019-03-24T14:08:17.479Z,50.30
2019-03-24T14:10:46.069Z,49.70
2019-03-24T14:13:14.689Z,49.50
2019-03-24T14:15:43.277Z,48.70
2019-03-24T14:18:11.921Z,49.50
2019-03-24T14:20:43.572Z,48.60
2019-03-24T14:23:10.906Z,48.40
2019-03-24T14:25:39.500Z,49.30
2019-03-24T14:28:08.102Z,48.70
2019-03-24T14:30:44.352Z,47.40
2019-03-24T14:33:13.201Z,47.50
2019-03-24T14:35:42.144Z,47.60
2019-03-24T14:38:10.826Z,47.80
2019-03-24T14:40:39.745Z,47.60
2019-03-24T14:43:08.530Z,48.00
2019-03-24T14:45:37.129Z,47.00
2019-03-24T14:48:05.771Z,46.70
2019-03-24T14:50:34.357Z,47.30
2019-03-24T14:53:02.931Z,48.00
2019-03-24T14:55:31.562Z,47.90
2019-03-24T14:58:00.226Z,47.70
2019-03-24T15:00:34.473Z,47.40
2019-03-24T15:03:03.209Z,47.10
2019-03-24T15:05:31.942Z,47.20
2019-03-24T15:08:02.145Z,47.50
2019-03-24T15:10:30.748Z,48.20
2019-03-24T15:12:59.644Z,47.90
2019-03-24T15:15:28.814Z,47.70
2019-03-24T15:17:57.474Z,48.40
2019-03-24T15:20:26.138Z,46.30
2019-03-24T15:22:54.808Z,45.90
2019-03-24T15:25:23.569Z,46.00
2019-03-24T15:27:52.228Z,46.90
2019-03-24T15:30:21.049Z,46.10
2019-03-24T15:32:49.797Z,45.70
2019-03-24T15:35:18.459Z,46.30
2019-03-24T15:37:47.062Z,46.80
2019-03-24T15:40:15.697Z,46.50
2019-03-24T15:42:44.407Z,46.60
2019-03-24T15:45:13.273Z,46.80
2019-03-24T15:47:41.934Z,46.90
2019-03-24T15:50:10.978Z,47.20
2019-03-24T15:52:39.693Z,47.60
2019-03-24T15:55:09.394Z,48.20
2019-03-24T15:57:38.064Z,47.30
2019-03-24T16:00:08.070Z,47.60
2019-03-24T16:02:36.775Z,48.60
2019-03-24T16:05:06.630Z,48.50
2019-03-24T16:07:35.723Z,48.80
2019-03-24T16:10:06.674Z,48.90
2019-03-24T16:12:35.316Z,49.30
2019-03-24T16:15:08.167Z,50.00
2019-03-24T16:17:35.964Z,50.20
2019-03-24T16:20:06.469Z,50.80
2019-03-24T16:22:35.075Z,50.90
2019-03-24T16:25:04.546Z,51.70
2019-03-24T16:27:35.021Z,51.80
2019-03-24T16:30:04.847Z,52.10
2019-03-24T16:32:33.436Z,52.40
2019-03-24T16:35:02.114Z,52.80
2019-03-24T16:37:30.674Z,53.00
2019-03-24T16:39:59.286Z,52.70
2019-03-24T16:42:27.894Z,52.40
2019-03-24T16:44:56.480Z,53.10
2019-03-24T16:47:25.172Z,52.80
2019-03-24T16:49:53.835Z,53.20
2019-03-24T16:52:22.530Z,53.10
2019-03-24T16:54:51.263Z,53.50
2019-03-24T16:57:19.861Z,53.90
2019-03-24T16:59:48.456Z,54.20
2019-03-24T17:02:17.110Z,54.80
2019-03-24T17:04:45.840Z,54.50
2019-03-24T17:07:14.450Z,54.60
2019-03-24T17:09:45.055Z,54.20
2019-03-24T17:12:13.555Z,54.30
2019-03-24T17:14:51.043Z,54.30
2019-03-24T17:17:19.747Z,54.30
2019-03-24T17:19:48.403Z,54.50
2019-03-24T17:22:17.027Z,54.50
2019-03-24T17:24:45.706Z,54.70
2019-03-24T17:27:14.462Z,54.50
2019-03-24T17:29:43.087Z,54.70
2019-03-24T17:32:11.678Z,54.80
2019-03-24T17:34:40.311Z,54.80
2019-03-24T17:37:08.916Z,55.60
2019-03-24T17:39:37.514Z,55.20
2019-03-24T17:42:06.311Z,55.50
2019-03-24T17:44:34.881Z,55.90
2019-03-24T17:47:03.507Z,56.00
2019-03-24T17:49:32.106Z,56.20
2019-03-24T17:52:01.210Z,56.60
2019-03-24T17:54:29.910Z,56.70
2019-03-24T17:56:59.041Z,56.90
2019-03-24T17:59:28.002Z,57.20
2019-03-24T18:01:56.672Z,57.30
2019-03-24T18:04:25.974Z,58.00
2019-03-24T18:06:54.810Z,57.70
2019-03-24T18:09:23.662Z,58.10
2019-03-24T18:11:52.254Z,58.40
2019-03-24T18:14:20.941Z,58.40
2019-03-24T18:16:49.547Z,58.90
2019-03-24T18:19:18.249Z,58.90
2019-03-24T18:21:46.910Z,59.00
2019-03-24T18:24:15.521Z,59.10
2019-03-24T18:26:44.195Z,59.30
2019-03-24T18:29:12.754Z,59.30
2019-03-24T18:31:41.484Z,59.20
2019-03-24T18:34:10.197Z,59.50
2019-03-24T18:36:38.933Z,59.50
2019-03-24T18:39:08.696Z,60.10
2019-03-24T18:41:37.379Z,60.00
2019-03-24T18:44:06.175Z,60.60
2019-03-24T18:46:34.813Z,60.90
2019-03-24T18:49:03.402Z,61.10
2019-03-24T18:51:32.052Z,60.90
2019-03-24T18:54:00.847Z,61.90
2019-03-24T18:56:29.720Z,61.90
2019-03-24T18:58:58.286Z,62.70
2019-03-24T19:01:26.889Z,62.80
2019-03-24T19:03:56.000Z,62.80
2019-03-24T19:06:24.715Z,63.80
2019-03-24T19:08:53.283Z,63.10
2019-03-24T19:11:21.880Z,63.20
2019-03-24T19:13:51.673Z,63.20
2019-03-24T19:16:20.479Z,63.50
2019-03-24T19:18:49.078Z,64.50
2019-03-24T19:21:17.682Z,64.80
2019-03-24T19:23:46.332Z,64.60
2019-03-24T19:26:14.946Z,64.90
2019-03-24T19:28:43.538Z,65.60
2019-03-24T19:31:12.249Z,65.60
2019-03-24T19:33:41.493Z,66.20
2019-03-24T19:36:10.371Z,66.30
2019-03-24T19:38:40.982Z,66.30
2019-03-24T19:41:09.650Z,66.80
2019-03-24T19:43:39.853Z,66.70
2019-03-24T19:46:08.484Z,66.90
2019-03-24T19:48:37.240Z,66.60
2019-03-24T19:51:07.169Z,67.30
2019-03-24T19:53:36.074Z,67.70
2019-03-24T19:56:04.875Z,67.80
2019-03-24T19:58:33.505Z,67.60
2019-03-24T20:01:02.360Z,68.10
2019-03-24T20:03:31.851Z,68.50
2019-03-24T20:06:00.480Z,67.70
2019-03-24T20:08:29.087Z,67.80
2019-03-24T20:10:57.687Z,67.70
2019-03-24T20:13:26.290Z,68.30
2019-03-24T20:15:54.878Z,68.50
2019-03-24T20:18:23.654Z,68.60
2019-03-24T20:20:52.351Z,68.90
2019-03-24T20:23:21.123Z,69.30
2019-03-24T20:25:49.698Z,69.40
2019-03-24T20:28:18.301Z,69.60
2019-03-24T20:30:47.085Z,70.30
2019-03-24T20:33:15.629Z,70.70
2019-03-24T20:35:44.281Z,70.30
2019-03-24T20:38:12.896Z,70.80
2019-03-24T20:40:41.732Z,70.70
2019-03-24T20:43:10.411Z,72.00
2019-03-24T20:45:39.083Z,71.20
2019-03-24T20:48:07.713Z,71.30
2019-03-24T20:50:36.450Z,71.40
2019-03-24T20:53:17.337Z,71.80
2019-03-24T20:55:35.338Z,72.50
2019-03-24T20:58:04.004Z,71.60
2019-03-24T21:00:34.034Z,71.60
2019-03-24T21:03:03.301Z,71.80
2019-03-24T21:05:31.874Z,72.00
2019-03-24T21:08:00.516Z,72.10
2019-03-24T21:10:29.106Z,72.10
2019-03-24T21:12:57.742Z,71.50
2019-03-24T21:15:26.455Z,72.70
2019-03-24T21:17:55.021Z,72.40
2019-03-24T21:20:23.649Z,72.30
2019-03-24T21:22:52.285Z,72.60
2019-03-24T21:25:21.151Z,72.80
2019-03-24T21:27:49.802Z,73.20
2019-03-24T21:30:21.488Z,73.40
2019-03-24T21:32:51.589Z,74.10
2019-03-24T21:35:20.370Z,74.50
2019-03-24T21:37:48.970Z,74.80
2019-03-24T21:40:17.598Z,75.30
2019-03-24T21:42:46.158Z,75.60
2019-03-24T21:45:16.386Z,76.20
2019-03-24T21:47:45.051Z,76.30
2019-03-24T21:50:13.758Z,76.40
2019-03-24T21:52:42.330Z,76.90
2019-03-24T21:55:11.198Z,76.60
2019-03-24T21:57:39.766Z,77.00
2019-03-24T22:00:09.412Z,77.30
2019-03-24T22:02:38.049Z,77.80
2019-03-24T22:05:07.371Z,77.90
2019-03-24T22:07:36.093Z,78.20
2019-03-24T22:10:06.535Z,78.60
2019-03-24T22:12:35.170Z,78.10
2019-03-24T22:15:05.614Z,78.50
2019-03-24T22:17:34.165Z,78.60
2019-03-24T22:20:03.104Z,79.30
2019-03-24T22:22:31.720Z,80.40
2019-03-24T22:25:00.353Z,79.80
2019-03-24T22:27:28.925Z,80.00
2019-03-24T22:29:57.633Z,80.50
2019-03-24T22:32:26.291Z,81.10
2019-03-24T22:34:54.887Z,80.80
2019-03-24T22:37:23.589Z,81.00
2019-03-24T22:39:52.285Z,81.60
2019-03-24T22:42:20.884Z,80.60
2019-03-24T22:44:49.521Z,82.20
2019-03-24T22:47:18.139Z,82.50
2019-03-24T22:49:46.738Z,81.90
2019-03-24T22:52:15.339Z,82.00
2019-03-24T22:54:43.954Z,82.50
2019-03-24T22:57:12.540Z,82.80
2019-03-24T22:59:41.216Z,82.50
2019-03-24T23:02:10.031Z,83.00
2019-03-24T23:04:38.717Z,81.80
2019-03-24T23:07:07.369Z,82.00
2019-03-24T23:09:36.110Z,83.30
2019-03-24T23:12:04.843Z,83.70
2019-03-24T23:14:33.569Z,83.50
2019-03-24T23:17:02.141Z,83.00
2019-03-24T23:19:30.745Z,84.40
2019-03-24T23:21:59.333Z,84.10
2019-03-24T23:24:27.970Z,84.00
2019-03-24T23:26:56.634Z,84.20
2019-03-24T23:29:25.302Z,84.50
2019-03-24T23:31:53.909Z,84.50
2019-03-24T23:34:22.566Z,84.70
2019-03-24T23:36:51.145Z,84.70
2019-03-24T23:39:19.828Z,84.90
2019-03-24T23:41:48.450Z,85.00
2019-03-24T23:44:17.206Z,85.20
2019-03-24T23:46:45.862Z,86.20
2019-03-24T23:49:14.436Z,86.70
2019-03-24T23:51:43.035Z,86.40
2019-03-24T23:54:11.634Z,86.80
2019-03-24T23:56:40.206Z,87.70
2019-03-24T23:59:08.846Z,88.30
